Time;durP1;ratioP1;P1;durP2;ratioP2;P2;SDS_P1;SDS_P2;PMS_P1;PMS_P2;Temp;Humidity;BMP_temperature;BMP_pressure;BME280_temperature;BME280_humidity;BME280_pressure;Samples;Min_cycle;Max_cycle;Signal;HPM_P1;HPM_P2
2024/02/20 00:26:21;;;;;;;9.40;3.80;;;;;;;5.51;94.26;98909.71;435410;1250;99231;-41
2024/02/20 00:36:28;;;;;;;6.60;5.20;;;;;;;5.53;94.37;98901.33;435258;1256;112000;-40
2024/02/20 00:46:34;;;;;;;16.50;9.00;;;;;;;5.52;94.49;98900.55;435298;1256;107713;-41
2024/02/20 00:56:41;;;;;;;17.10;10.80;;;;;;;5.45;94.55;98902.00;435245;1256;99211;-40
2024/02/20 01:06:47;;;;;;;16.40;9.40;;;;;;;5.45;94.46;98901.98;435279;1256;109108;-39
2024/02/20 01:16:55;;;;;;;10.10;5.60;;;;;;;5.49;94.33;98894.65;435269;1264;99224;-40
2024/02/20 01:27:03;;;;;;;7.40;5.30;;;;;;;5.53;94.54;98893.83;435281;1256;112885;-40
2024/02/20 01:37:10;;;;;;;5.50;4.40;;;;;;;5.54;94.63;98885.23;435304;1255;108805;-40
2024/02/20 01:47:18;;;;;;;13.50;7.50;;;;;;;5.57;94.72;98878.46;435249;1254;98274;-40
2024/02/20 01:57:25;;;;;;;10.80;6.70;;;;;;;5.49;94.99;98867.89;435401;1257;108666;-40
2024/02/20 02:07:33;;;;;;;10.00;5.90;;;;;;;5.44;95.04;98867.16;435248;1255;99231;-39
2024/02/20 02:17:40;;;;;;;13.00;6.60;;;;;;;5.41;94.82;98859.30;436285;1254;112156;-40
2024/02/20 02:27:48;;;;;;;11.20;5.90;;;;;;;5.44;95.21;98864.42;435183;1256;108277;-40
2024/02/20 02:37:56;;;;;;;7.00;6.00;;;;;;;5.50;95.15;98859.55;435678;1255;97901;-40
2024/02/20 03:08:17;;;;;;;7.70;6.30;;;;;;;5.60;95.92;98862.31;435337;1250;109888;-40
2024/02/20 03:18:23;;;;;;;9.70;6.80;;;;;;;5.63;96.05;98860.94;435317;1251;108534;-40
2024/02/20 03:28:31;;;;;;;10.10;7.60;;;;;;;5.69;96.30;98868.95;435346;1256;99230;-39
2024/02/20 03:38:39;;;;;;;12.00;7.80;;;;;;;5.69;96.26;98861.01;435293;1255;107988;-39
2024/02/20 03:48:46;;;;;;;14.60;8.60;;;;;;;5.70;96.40;98862.86;435261;1256;99323;-41
2024/02/20 03:58:53;;;;;;;8.50;7.60;;;;;;;5.70;96.57;98865.21;435216;1254;111186;-39
2024/02/20 04:19:08;;;;;;;8.20;6.40;;;;;;;5.69;96.56;98871.13;435212;1256;99203;-39
2024/02/20 04:29:15;;;;;;;8.40;6.70;;;;;;;5.66;96.50;98880.83;435364;1257;108341;-40
2024/02/20 04:39:23;;;;;;;10.50;5.90;;;;;;;5.67;96.46;98880.83;435350;1257;99244;-39
2024/02/20 04:49:30;;;;;;;12.40;8.20;;;;;;;5.71;96.82;98880.19;435259;1266;111708;-39
2024/02/20 04:59:38;;;;;;;6.90;5.90;;;;;;;5.76;96.85;98875.89;435246;1250;108678;-40
2024/02/20 05:09:46;;;;;;;9.40;6.00;;;;;;;5.79;97.12;98874.27;435362;1250;99106;-40
2024/02/20 05:19:52;;;;;;;6.10;4.90;;;;;;;5.82;96.87;98881.23;435301;1264;108231;-39
2024/02/20 05:29:59;;;;;;;5.90;5.40;;;;;;;5.80;97.10;98878.34;435405;1251;98167;-40
2024/02/20 05:50:17;;;;;;;17.20;8.70;;;;;;;5.86;97.58;98866.05;435201;1257;108715;-39
2024/02/20 06:00:25;;;;;;;21.20;13.70;;;;;;;5.91;97.56;98877.09;435287;1256;98832;-39
2024/02/20 06:10:32;;;;;;;18.50;14.20;;;;;;;5.93;97.52;98887.80;435273;1254;106816;-39
2024/02/20 06:30:48;;;;;;;23.70;16.00;;;;;;;5.85;97.70;98898.02;435392;1257;112949;-39
2024/02/20 06:40:55;;;;;;;26.60;18.10;;;;;;;5.90;97.82;98903.20;435177;1261;105516;-40
2024/02/20 06:51:03;;;;;;;29.80;22.10;;;;;;;6.00;97.92;98904.73;435535;1264;99273;-39
2024/02/20 07:01:10;;;;;;;16.60;12.10;;;;;;;6.09;98.00;98914.06;435810;1251;108737;-40
2024/02/20 07:11:18;;;;;;;15.20;11.30;;;;;;;6.20;98.09;98917.09;435126;1257;97953;-39
2024/02/20 07:21:26;;;;;;;9.60;8.40;;;;;;;6.28;98.38;98913.00;435383;1257;111826;-40
2024/02/20 07:31:33;;;;;;;18.70;13.00;;;;;;;6.36;98.58;98914.67;435226;1256;108564;-39
2024/02/20 07:41:41;;;;;;;16.60;11.20;;;;;;;6.37;98.56;98913.52;435295;1257;99341;-38
2024/02/20 07:51:49;;;;;;;12.00;8.40;;;;;;;6.40;98.48;98917.83;435287;1253;108019;-39
2024/02/20 08:01:57;;;;;;;8.00;6.60;;;;;;;6.47;99.00;98915.19;435294;1256;99208;-40
2024/02/20 08:12:03;;;;;;;10.90;6.20;;;;;;;6.58;99.21;98922.82;435444;1256;111764;-42
2024/02/20 08:22:11;;;;;;;10.50;6.20;;;;;;;6.65;99.12;98922.09;435354;1251;107332;-40
2024/02/20 08:32:21;;;;;;;6.90;5.40;;;;;;;6.78;99.38;98929.35;435322;1254;99215;-40
2024/02/20 08:42:28;;;;;;;8.30;6.70;;;;;;;6.84;99.39;98924.55;435198;1257;108639;-40
2024/02/20 08:52:35;;;;;;;8.60;6.80;;;;;;;6.83;99.29;98932.23;435088;1264;99212;-40
2024/02/20 09:02:43;;;;;;;6.90;6.10;;;;;;;6.89;99.31;98928.84;435347;1264;112918;-39
2024/02/20 09:12:50;;;;;;;9.50;8.10;;;;;;;6.91;99.52;98931.46;435300;1251;107017;-40
2024/02/20 09:33:04;;;;;;;9.90;6.90;;;;;;;6.91;99.89;98942.11;435347;1251;109501;-40
2024/02/20 09:43:16;;;;;;;12.80;8.30;;;;;;;7.01;99.92;98954.13;435239;1251;99218;-39
2024/02/20 09:53:24;;;;;;;9.80;6.60;;;;;;;7.03;99.97;98955.06;435265;1264;111823;-39
2024/02/20 10:03:33;;;;;;;8.40;6.30;;;;;;;7.06;100.00;98959.08;435373;1254;108469;-39
2024/02/20 10:13:49;;;;;;;7.50;5.30;;;;;;;7.13;100.00;98969.34;435480;1255;99272;-40
2024/02/20 10:34:08;;;;;;;10.40;5.40;;;;;;;7.17;99.89;98964.77;435427;1254;97985;-41
2024/02/20 10:44:22;;;;;;;5.10;4.40;;;;;;;6.92;99.86;98969.15;435393;1254;112987;-39
2024/02/20 10:54:30;;;;;;;23.60;13.20;;;;;;;6.90;99.99;98956.45;435411;1251;105752;-39
2024/02/20 11:04:51;;;;;;;7.60;6.30;;;;;;;7.17;99.96;98951.55;435337;1264;99227;-41
2024/02/20 11:15:11;;;;;;;5.30;4.30;;;;;;;7.33;100.00;98944.23;435359;1251;108165;-40
2024/02/20 11:25:28;;;;;;;4.50;3.10;;;;;;;7.19;100.00;98946.37;435310;1264;99233;-39
2024/02/20 11:35:35;;;;;;;7.20;4.00;;;;;;;7.07;100.00;98945.04;435326;1251;111562;-40
2024/02/20 11:45:48;;;;;;;3.30;2.80;;;;;;;6.99;100.00;98955.02;435238;1251;108723;-40
2024/02/20 11:55:58;;;;;;;42.00;22.60;;;;;;;6.99;100.00;98946.16;435392;1254;98572;-40
2024/02/20 12:06:07;;;;;;;7.10;4.40;;;;;;;7.07;100.00;98942.25;435287;1250;107928;-40
2024/02/20 12:26:32;;;;;;;9.90;5.50;;;;;;;7.08;100.00;98931.77;435341;1249;111977;-40
2024/02/20 12:36:38;;;;;;;8.90;5.40;;;;;;;7.19;100.00;98926.91;435129;1251;108148;-40
2024/02/20 12:46:45;;;;;;;9.50;6.00;;;;;;;7.26;100.00;98930.35;435248;1254;99223;-39
2024/02/20 12:56:56;;;;;;;9.70;5.80;;;;;;;7.28;100.00;98931.92;435414;1253;108390;-40
2024/02/20 13:07:03;;;;;;;7.60;4.90;;;;;;;7.32;100.00;98929.99;435283;1249;99218;-40
2024/02/20 13:17:11;;;;;;;12.40;7.90;;;;;;;7.57;100.00;98926.16;435327;1253;112177;-41
2024/02/20 13:27:18;;;;;;;7.00;5.80;;;;;;;7.77;100.00;98922.66;435175;1253;107651;-40
2024/02/20 13:37:28;;;;;;;10.10;5.80;;;;;;;7.86;100.00;98921.77;435298;1254;99221;-39
2024/02/20 13:47:36;;;;;;;8.10;5.10;;;;;;;7.88;100.00;98915.60;435221;1253;107540;-40
2024/02/20 13:57:43;;;;;;;9.10;6.10;;;;;;;7.80;99.99;98914.20;435239;1253;99246;-40
2024/02/20 14:07:52;;;;;;;21.40;11.90;;;;;;;7.72;100.00;98921.00;435369;1253;110985;-40
2024/02/20 14:17:58;;;;;;;8.00;4.10;;;;;;;7.36;99.46;98949.14;435187;1253;106657;-41
2024/02/20 14:28:06;;;;;;;3.40;2.20;;;;;;;6.90;99.21;98949.28;435262;1253;99228;-39
2024/02/20 14:48:21;;;;;;;3.40;2.80;;;;;;;6.48;99.00;98969.88;435472;1249;99216;-40
2024/02/20 14:58:29;;;;;;;35.70;12.20;;;;;;;6.33;98.75;98983.09;435134;1251;113397;-39
2024/02/20 15:08:37;;;;;;;9.70;5.00;;;;;;;6.20;98.67;98983.70;435519;1251;108568;-39
2024/02/20 15:18:44;;;;;;;7.80;5.70;;;;;;;6.07;98.74;98989.54;435343;1253;98491;-40
2024/02/20 15:28:51;;;;;;;17.20;9.50;;;;;;;6.03;98.63;98991.86;435399;1253;108545;-40
2024/02/20 15:38:57;;;;;;;6.50;5.00;;;;;;;6.10;98.50;99001.11;435426;1253;99237;-39
2024/02/20 15:49:05;;;;;;;11.50;6.20;;;;;;;6.07;98.32;99011.63;435302;1253;110885;-40
2024/02/20 15:59:13;;;;;;;8.10;6.00;;;;;;;6.01;98.54;99017.69;435194;1250;108143;-39
2024/02/20 16:09:20;;;;;;;12.60;7.40;;;;;;;5.98;98.66;99029.05;435073;1250;447962;-40
2024/02/20 16:19:27;;;;;;;16.60;8.70;;;;;;;5.93;98.96;99038.40;435171;1253;109389;-40
2024/02/20 16:29:35;;;;;;;10.30;5.60;;;;;;;5.95;98.72;99046.59;435129;1253;99320;-40
2024/02/20 16:39:43;;;;;;;9.20;5.20;;;;;;;5.97;98.72;99055.75;435408;1253;111976;-40
2024/02/20 16:49:49;;;;;;;8.20;4.70;;;;;;;5.97;98.55;99063.14;435356;1251;109347;-39
2024/02/20 16:59:56;;;;;;;8.30;4.90;;;;;;;5.88;98.38;99065.85;435368;1253;99294;-39
2024/02/20 17:10:03;;;;;;;10.80;6.70;;;;;;;5.66;98.24;99068.98;435337;1253;108580;-39
2024/02/20 17:20:12;;;;;;;13.30;8.70;;;;;;;5.38;98.06;99077.63;435692;1249;99273;-39
2024/02/20 17:30:20;;;;;;;21.40;11.90;;;;;;;5.23;98.13;99076.42;435507;1253;112406;-39
2024/02/20 17:40:27;;;;;;;23.20;13.00;;;;;;;5.23;98.16;99086.66;435266;1253;107754;-42
2024/02/20 18:00:42;;;;;;;11.60;7.40;;;;;;;5.32;98.40;99098.38;435301;1250;107874;-40
2024/02/20 18:10:50;;;;;;;10.50;5.70;;;;;;;5.36;98.55;99106.59;435332;1254;99234;-40
2024/02/20 18:20:57;;;;;;;13.90;8.90;;;;;;;5.40;98.79;99120.89;435487;1249;111475;-40
2024/02/20 18:31:04;;;;;;;7.50;4.90;;;;;;;5.41;99.02;99129.77;435398;1251;109344;-41
2024/02/20 18:41:11;;;;;;;5.10;3.60;;;;;;;5.35;98.91;99132.58;435846;1253;99227;-39
2024/02/20 18:51:18;;;;;;;4.20;2.70;;;;;;;5.26;99.04;99135.75;435287;1253;107470;-41
2024/02/20 19:01:31;;;;;;;5.70;3.60;;;;;;;5.16;98.91;99131.46;435155;1250;99196;-40
2024/02/20 19:11:42;;;;;;;8.60;4.60;;;;;;;5.03;99.10;99138.84;435307;1253;112840;-39
2024/02/20 19:21:48;;;;;;;10.30;3.90;;;;;;;4.91;98.99;99137.45;435365;1253;107554;-40
2024/02/20 19:31:56;;;;;;;8.30;4.00;;;;;;;4.80;98.78;99142.92;435314;1253;99221;-40
2024/02/20 19:42:03;;;;;;;13.20;5.30;;;;;;;4.80;99.19;99150.86;435266;1250;108041;-40
2024/02/20 19:52:10;;;;;;;10.10;4.50;;;;;;;4.88;99.40;99158.74;435310;1250;98827;-40
2024/02/20 20:02:17;;;;;;;11.50;4.80;;;;;;;4.97;99.34;99164.67;435245;1250;111212;-40
2024/02/20 20:12:25;;;;;;;12.50;5.30;;;;;;;5.01;99.42;99169.83;435322;1250;107883;-40
2024/02/20 20:22:33;;;;;;;10.00;5.90;;;;;;;4.98;99.26;99170.18;435330;1254;98818;-40
2024/02/20 20:32:41;;;;;;;9.80;5.80;;;;;;;4.90;99.23;99172.14;435403;1253;107110;-40
2024/02/20 20:52:56;;;;;;;9.00;4.50;;;;;;;4.68;98.93;99181.73;435336;1253;111919;-39
2024/02/20 21:03:06;;;;;;;11.60;5.10;;;;;;;4.66;99.15;99190.20;435340;1253;108108;-39
2024/02/20 21:13:11;;;;;;;10.10;3.60;;;;;;;4.65;99.10;99200.55;435356;1253;99237;-39
2024/02/20 21:23:17;;;;;;;10.60;5.60;;;;;;;4.58;99.35;99205.20;435515;1251;109958;-40
2024/02/20 21:33:24;;;;;;;13.30;6.20;;;;;;;4.54;99.32;99203.85;435413;1253;99250;-40
2024/02/20 21:43:32;;;;;;;12.70;5.00;;;;;;;4.57;99.05;99214.95;435619;1251;112234;-39
2024/02/20 21:53:41;;;;;;;12.90;4.80;;;;;;;4.65;98.90;99216.27;435353;1264;107714;-39
2024/02/20 22:03:48;;;;;;;13.20;4.20;;;;;;;4.70;98.90;99216.55;435475;1253;97989;-40
2024/02/20 22:13:56;;;;;;;14.00;6.50;;;;;;;4.74;98.89;99211.59;435345;1253;107309;-40
2024/02/20 22:24:05;;;;;;;15.70;5.90;;;;;;;4.65;98.96;99204.29;435548;1253;99110;-40
2024/02/20 22:34:12;;;;;;;17.90;8.60;;;;;;;4.52;98.69;99212.00;435573;1253;111484;-40
2024/02/20 23:04:32;;;;;;;10.60;4.50;;;;;;;4.37;98.27;99205.29;435333;1253;112716;-48
2024/02/20 23:24:47;;;;;;;19.80;6.60;;;;;;;4.31;98.48;99199.92;435551;1251;97990;-39
2024/02/20 23:34:55;;;;;;;18.20;7.80;;;;;;;4.07;98.42;99206.06;435334;1253;108292;-40
2024/02/20 23:45:02;;;;;;;10.90;5.90;;;;;;;4.06;98.66;99204.42;435371;1253;99208;-40
2024/02/20 23:55:09;;;;;;;14.40;4.80;;;;;;;4.17;98.56;99196.01;435333;1253;111657;-41
